• Join FlightAware (Why Join?)
  • Login
  • US Flag 
07:27AM EDT


 

Airport Tracker/Info


-or-


 

Live Flight TrackerFlight Track Log ✈ UAL4236 ✈ 12-Apr-2013 ✈ KIAH - KELP

Flight Track Log - Related Links

Times and Time Zones

All times are in EDT time to prevent confusion due to time zone crossing. See the UAL4236 flight status page for this flight to view local times or setup timezone preferences in your user account.

Time Position Orientation Groundspeed Altitude Reporting Facility
EDT Latitude Longitude Course Direction KTS MPH feet Rate Location/Type
10:11AM 29.9597 -95.3439 214° Southwest 180 207 600  Level Houston Center
10:11AM 29.9303 -95.3667 214° Southwest 193 222 2,000 1,680 Climbing Houston Center
10:13AM 29.8814 -95.4303 228° Southwest 265 305 3,700 1,980 Climbing Houston Center
10:13AM 29.8686 -95.4969 258° West 252 290 6,100 2,220 Climbing Houston Center
10:14AM 29.8814 -95.5103 318° Northwest 259 298 6,500 2,160 Climbing Houston Center
10:15AM 29.9222 -95.5556 316° Northwest 256 295 8,300 1,980 Climbing Houston Center
10:15AM 29.9325 -95.5661 318° Northwest 254 292 8,600 1,920 Climbing Houston Center
10:16AM 29.9572 -95.6406 291° West 276 318 10,500 1,440 Climbing Houston Center
10:17AM 29.9828 -95.7342 288° West 286 329 11,700 1,020 Climbing Houston Center
10:18AM 30.0147 -95.8539 287° West 326 375 12,900 1,380 Climbing Houston Center
10:19AM 30.0422 -95.9564 287° West 334 384 14,600 1,260 Climbing Houston Center
10:20AM 30.0692 -96.0572 287° West 335 386 15,600 960 Climbing Houston Center
10:21AM 30.0861 -96.1636 280° West 337 388 16,700 1,020 Climbing Houston Center
10:22AM 30.1058 -96.2933 280° West 343 395 17,800 960 Climbing Houston Center
10:23AM 30.1236 -96.4019 281° West 345 397 18,800 960 Climbing Houston Center
10:24AM 30.1394 -96.5100 280° West 351 404 19,800 900 Climbing Houston Center
10:25AM 30.1572 -96.6225 280° West 352 405 20,700 900 Climbing Houston Center
10:26AM 30.1736 -96.7364 279° West 355 409 21,700 1,200 Climbing Houston Center
10:27AM 30.1939 -96.8717 280° West 358 412 23,200 1,200 Climbing Houston Center
10:28AM 30.2106 -96.9836 280° West 351 404 24,200 960 Climbing Houston Center
10:29AM 30.2275 -97.0983 280° West 356 410 25,200 960 Climbing Houston Center
10:30AM 30.2439 -97.2117 280° West 352 405 26,200 960 Climbing Houston Center
10:31AM 30.2603 -97.3244 280° West 352 405 27,200 960 Climbing Houston Center
10:32AM 30.2803 -97.4353 282° West 349 402 28,200 960 Climbing Houston Center
10:33AM 30.3025 -97.5453 283° West 348 400 29,200 960 Climbing Houston Center
10:34AM 30.3222 -97.6528 282° West 340 391 30,200 1,020 Climbing Houston Center
10:36AM 30.3481 -97.7808 283° West 346 398 31,400 1,020 Climbing Houston Center
10:37AM 30.3689 -97.8886 283° West 340 391 32,400 960 Climbing Houston Center
10:38AM 30.3886 -97.9967 282° West 340 391 33,400 960 Climbing Houston Center
10:39AM 30.4078 -98.1061 282° West 343 395 34,400 960 Climbing Houston Center
10:40AM 30.4303 -98.2136 284° West 341 392 35,400 720 Climbing Houston Center
10:41AM 30.4497 -98.3194 282° West 336 387 36,000 240 Climbing Houston Center
10:42AM 30.4697 -98.4297 282° West 342 394 36,000  Level Houston Center
10:43AM 30.4967 -98.5653 283° West 365 420 36,000  Level Houston Center
10:44AM 30.5175 -98.6853 281° West 376 433 36,000  Level Houston Center
10:45AM 30.5425 -98.8086 283° West 385 443 36,000  Level Houston Center
10:46AM 30.5658 -98.9339 282° West 393 452 36,000  Level Houston Center
10:47AM 30.5892 -99.0575 282° West 391 450 36,000  Level Houston Center
10:48AM 30.6111 -99.1747 282° West 382 440 36,000  Level Houston Center
10:49AM 30.6328 -99.2939 282° West 381 438 36,000  Level Houston Center
10:50AM 30.6586 -99.4389 282° West 384 442 36,000  Level Houston Center
10:51AM 30.6794 -99.5592 281° West 383 441 36,000  Level Houston Center
10:52AM 30.7014 -99.6806 282° West 386 444 36,000  Level Houston Center
10:53AM 30.7211 -99.7992 281° West 377 434 36,000  Level Houston Center
10:54AM 30.7422 -99.9186 282° West 378 435 36,000  Level Houston Center
10:55AM 30.7686 -100.0669 282° West 389 448 36,000  Level Houston Center
10:56AM 30.7908 -100.1894 282° West 385 443 36,000  Level Houston Center
10:57AM 30.8100 -100.3069 281° West 377 434 36,000  Level Houston Center
10:58AM 30.8303 -100.4267 281° West 379 436 36,000  Level Houston Center
10:59AM 30.8506 -100.5467 281° West 379 436 36,000  Level Houston Center
11:00AM 30.8758 -100.6914 282° West 381 438 36,000  Level Houston Center
11:01AM 30.8961 -100.8128 281° West 380 437 36,000  Level Houston Center
11:02AM 30.9183 -100.9339 282° West 382 440 36,000  Level Houston Center
11:03AM 30.9364 -101.0539 280° West 375 432 36,000  Level Houston Center
11:05AM 30.9564 -101.1739 281° West 376 433 36,000  Level Houston Center
11:06AM 30.9775 -101.2936 282° West 376 433 36,000  Level Houston Center
11:07AM 30.9986 -101.4356 280° West 375 432 36,000  Level Houston Center
11:07AM 31.0067 -101.4836 281° West 379 436 36,000  Level Albuquerque Center
11:08AM 31.0269 -101.6031 281° West 377 434 36,000  Level Albuquerque Center
11:09AM 31.0467 -101.7242 281° West 379 436 36,000  Level Albuquerque Center
11:10AM 31.0658 -101.8447 281° West 378 435 36,000  Level Albuquerque Center
11:11AM 31.0858 -101.9769 280° West 386 444 36,000  Level Albuquerque Center
11:12AM 31.1047 -102.0983 280° West 383 441 36,000  Level Albuquerque Center
11:13AM 31.1247 -102.2194 281° West 380 437 36,000  Level Albuquerque Center
11:14AM 31.1461 -102.3644 280° West 378 435 36,000  Level Albuquerque Center
11:15AM 31.1661 -102.4867 281° West 381 438 36,000  Level Albuquerque Center
11:16AM 31.1836 -102.6067 280° West 380 437 36,000  Level Albuquerque Center
11:17AM 31.2014 -102.7294 280° West 380 437 36,000  Level Albuquerque Center
11:18AM 31.2200 -102.8506 280° West 379 436 36,000  Level Albuquerque Center
11:19AM 31.2383 -102.9719 280° West 380 437 36,000  Level Albuquerque Center
11:20AM 31.2614 -103.1181 280° West 381 438 36,000  Level Albuquerque Center
11:21AM 31.2786 -103.2397 279° West 381 438 36,000  Level Albuquerque Center
11:22AM 31.2956 -103.3614 279° West 378 435 36,000  Level Albuquerque Center
11:24AM 31.3142 -103.4831 280° West 379 436 36,000  Level Albuquerque Center
11:25AM 31.3325 -103.6042 280° West 379 436 36,000  Level Albuquerque Center
11:26AM 31.3500 -103.7275 279° West 383 441 36,000  Level Albuquerque Center
11:27AM 31.3669 -103.8517 279° West 381 438 36,000  Level Albuquerque Center
11:28AM 31.3894 -103.9983 280° West 383 441 36,000  Level Albuquerque Center
11:29AM 31.4075 -104.1203 280° West 383 441 36,000  Level Albuquerque Center
11:30AM 31.4236 -104.2419 279° West 381 438 36,000  Level Albuquerque Center
11:31AM 31.4422 -104.3658 280° West 384 442 36,000 -660 Level Albuquerque Center
11:32AM 31.4578 -104.4883 278° West 384 442 34,700 -1,800 Descending Albuquerque Center
11:33AM 31.4731 -104.6358 277° West 385 443 32,400 -2,220 Descending Albuquerque Center
11:34AM 31.4858 -104.7583 277° West 383 441 30,200 -1,860 Descending Albuquerque Center
11:35AM 31.4986 -104.8828 277° West 385 443 28,600 -1,860 Descending Albuquerque Center
11:36AM 31.5106 -105.0075 276° West 386 444 26,400 -1,920 Descending Albuquerque Center
11:37AM 31.5239 -105.1336 277° West 390 449 24,700 -1,620 Descending Albuquerque Center
11:38AM 31.5386 -105.2864 276° West 395 455 23,100 -1,860 Descending Albuquerque Center
11:39AM 31.5500 -105.4050 276° West 371 427 20,900 -1,500 Descending Albuquerque Center
11:40AM 31.5628 -105.5267 277° West 379 436 20,000 -600 Descending Albuquerque Center
11:41AM 31.5683 -105.6100 274° West 388 447 20,000 -240 Level Albuquerque Center
11:41AM 31.5731 -105.6497 278° West 381 438 19,800 -1,920 Descending Albuquerque Center
11:42AM 31.5808 -105.7217 277° West 375 432 18,300 -2,760 Descending Albuquerque Center
11:42AM 31.5856 -105.7678 277° West 368 423 17,000 -2,280 Descending Albuquerque Center
11:43AM 31.6042 -105.8356 288° West 360 414 16,000 -2,040 Descending Albuquerque Center
11:43AM 31.6364 -105.8931 303° West 359 413 14,900 -2,460 Descending Albuquerque Center
11:44AM 31.6614 -105.9486 298° West 345 397 13,300 -2,940 Descending Albuquerque Center
11:44AM 31.6839 -105.9900 303° West 346 398 11,900 -2,580 Descending Albuquerque Center
11:45AM 31.7089 -106.0439 299° West 340 391 10,700 -1,560 Descending Albuquerque Center
11:45AM 31.7297 -106.0828 302° West 331 381 10,300 -720 Descending Albuquerque Center
11:46AM 31.7553 -106.1222 307° West 282 325 10,000 -1,200 Descending Albuquerque Center
11:46AM 31.7825 -106.1478 321° Northwest 280 322 9,100 -1,620 Descending Albuquerque Center
11:47AM 31.8144 -106.1772 322° Northwest 261 300 8,400 -1,800 Descending Albuquerque Center
11:47AM 31.8411 -106.2011 323° Northwest 269 310 7,300 -2,040 Descending Albuquerque Center